Time;durP1;ratioP1;P1;durP2;ratioP2;P2;SDS_P1;SDS_P2;PMS_P1;PMS_P2;Temp;Humidity;BMP_temperature;BMP_pressure;BME280_temperature;BME280_humidity;BME280_pressure;Samples;Min_cycle;Max_cycle;Signal;HPM_P1;HPM_P2
2022/02/03 00:00:23;;;;;;;27.52;9.98;;;;;;;8.03;100.00;102043.88;5055132;28;20844;-69
2022/02/03 00:03:02;;;;;;;27.80;9.98;;;;;;;7.99;100.00;102061.56;5062272;28;20027;-74
2022/02/03 00:22:05;;;;;;;26.35;10.48;;;;;;;7.87;100.00;102051.16;5012750;28;20078;-73
2022/02/03 00:24:58;;;;;;;27.10;9.95;;;;;;;7.81;100.00;102061.81;5012457;28;20033;-68
2022/02/03 00:27:51;;;;;;;28.05;9.82;;;;;;;7.83;100.00;102052.97;5009472;28;20148;-73
2022/02/03 00:30:19;;;;;;;24.38;9.93;;;;;;;7.83;100.00;102052.97;5012381;28;20061;-72
2022/02/03 00:33:05;;;;;;;23.67;10.25;;;;;;;7.84;100.00;102051.22;5012556;28;20034;-69
2022/02/03 00:35:55;;;;;;;25.65;10.23;;;;;;;7.83;100.00;102052.97;5012073;28;20551;-69
2022/02/03 00:49:16;;;;;;;29.85;10.45;;;;;;;7.82;100.00;102031.91;5074366;28;20446;-75
2022/02/03 00:51:46;;;;;;;31.02;10.40;;;;;;;7.82;100.00;102022.22;5074078;28;20033;-70
2022/02/03 00:54:13;;;;;;;29.23;10.43;;;;;;;7.83;100.00;102031.00;5072660;28;20082;-74
2022/02/03 00:56:47;;;;;;;29.08;11.10;;;;;;;7.85;100.00;102023.94;5073483;28;20111;-69
2022/02/03 00:59:21;;;;;;;22.77;9.93;;;;;;;7.82;100.00;102031.91;5053635;28;20036;-68
2022/02/03 01:01:49;;;;;;;30.10;10.55;;;;;;;7.84;100.00;102022.22;5053838;28;20037;-69
2022/02/03 01:04:15;;;;;;;26.83;10.05;;;;;;;7.86;100.00;102010.75;5053883;28;20025;-67
2022/02/03 01:06:56;;;;;;;25.30;10.70;;;;;;;7.87;100.00;102008.97;5069928;28;20032;-68
2022/02/03 01:09:24;;;;;;;30.45;9.70;;;;;;;7.87;100.00;102020.38;5073309;28;20041;-73
2022/02/03 01:12:01;;;;;;;23.17;10.75;;;;;;;7.85;100.00;102023.94;5073406;28;20078;-71
2022/02/03 01:14:40;;;;;;;25.23;10.48;;;;;;;7.85;100.00;102016.03;5073478;28;20166;-71
2022/02/03 01:44:27;;;;;;;30.67;12.30;;;;;;;7.83;100.00;101965.09;5073441;28;20362;-68
2022/02/03 01:47:10;;;;;;;27.83;12.18;;;;;;;7.83;100.00;101965.94;5072543;28;20100;-67
2022/02/03 01:51:39;;;;;;;31.00;12.55;;;;;;;7.84;100.00;101966.84;5072747;28;20104;-67
2022/02/03 01:52:34;;;;;;;25.10;11.05;;;;;;;7.83;100.00;101967.72;5072176;28;20090;-70
2022/02/03 01:55:02;;;;;;;27.35;11.88;;;;;;;7.82;100.00;101960.69;5073091;28;20031;-72
2022/02/03 01:57:42;;;;;;;29.92;11.02;;;;;;;7.82;100.00;101958.94;5072608;28;20052;-72
2022/02/03 02:00:13;;;;;;;25.70;10.95;;;;;;;7.85;100.00;101958.91;5072350;28;20043;-68
2022/02/03 02:02:45;;;;;;;25.88;10.75;;;;;;;7.86;100.00;101965.91;5072235;28;20031;-74
2022/02/03 02:05:29;;;;;;;;;;;;;;;7.84;100.00;101965.06;5072523;28;20475;-71
2022/02/03 02:08:35;;;;;;;26.48;10.98;;;;;;;7.81;100.00;101959.84;5072299;28;19946;-67
2022/02/03 02:11:45;;;;;;;23.50;10.38;;;;;;;7.82;100.00;101965.97;5073046;28;20104;-67
2022/02/03 02:37:14;;;;;;;20.58;6.47;;;;;;;7.83;100.00;101918.47;4895403;29;20126;-74
2022/02/03 02:39:58;;;;;;;19.25;6.07;;;;;;;7.85;100.00;101908.78;4902852;29;20075;-69
2022/02/03 02:45:02;;;;;;;17.55;5.90;;;;;;;7.86;100.00;101894.72;4901018;29;20032;-68
2022/02/03 02:47:43;;;;;;;16.60;6.55;;;;;;;7.86;100.00;101896.47;4903583;29;20053;-75
2022/02/03 02:50:21;;;;;;;18.27;5.97;;;;;;;7.86;100.00;101888.53;4904152;29;20068;-72
2022/02/03 02:53:16;;;;;;;17.65;5.68;;;;;;;7.87;100.00;101892.94;4914121;28;20120;-69
2022/02/03 02:56:15;;;;;;;16.80;6.10;;;;;;;7.87;100.00;101877.97;5048284;28;20805;-74
2022/02/03 02:59:10;;;;;;;17.98;5.45;;;;;;;7.86;100.00;101865.69;5052361;28;20032;-75
2022/02/03 03:29:07;;;;;;;23.13;6.57;;;;;;;7.83;100.00;101860.47;5051649;28;20044;-68
2022/02/03 03:37:57;;;;;;;13.18;5.15;;;;;;;7.83;100.00;101801.59;5013288;28;20091;-74
2022/02/03 03:40:23;;;;;;;14.10;5.40;;;;;;;7.85;100.00;101799.78;5021265;28;20048;-70
2022/02/03 03:43:01;;;;;;;16.77;5.15;;;;;;;7.83;100.00;101797.16;5074932;28;20024;-72
2022/02/03 03:45:30;;;;;;;16.65;5.35;;;;;;;7.84;100.00;101791.00;5075240;28;20100;-73
2022/02/03 03:48:01;;;;;;;10.18;4.75;;;;;;;7.83;100.00;101797.16;5075053;28;20067;-72
2022/02/03 03:50:28;;;;;;;11.25;5.07;;;;;;;7.82;100.00;101784.03;5074902;28;20483;-72
2022/02/03 03:53:02;;;;;;;11.50;4.70;;;;;;;7.82;100.00;101798.06;5074750;28;20032;-69
2022/02/03 03:55:43;;;;;;;16.40;5.32;;;;;;;7.81;100.00;101808.66;5075168;28;20028;-72
2022/02/03 03:58:37;;;;;;;12.65;5.35;;;;;;;7.81;100.00;101804.25;5060457;28;20029;-68
2022/02/03 05:06:01;;;;;;;10.57;3.88;;;;;;;7.67;98.76;101745.63;4934098;29;20051;-74
2022/02/03 05:08:57;;;;;;;13.73;4.05;;;;;;;7.69;98.59;101720.09;4934093;29;20066;-72
2022/02/03 05:15:04;;;;;;;12.73;3.88;;;;;;;7.67;97.96;101709.59;4915417;28;20087;-74
2022/02/03 05:44:13;;;;;;;14.75;3.88;;;;;;;7.56;97.98;101682.56;4877280;29;20044;-72
2022/02/03 05:55:23;;;;;;;9.00;3.35;;;;;;;7.60;97.33;101657.88;4876739;29;20049;-71
2022/02/03 06:14:27;;;;;;;9.25;3.88;;;;;;;7.55;97.68;101628.97;5072805;28;20162;-73
2022/02/03 06:27:28;;;;;;;8.85;3.63;;;;;;;7.52;97.47;101630.81;5072673;28;20028;-71
2022/02/03 06:29:56;;;;;;;7.63;3.30;;;;;;;7.54;97.27;101629.88;5053775;28;20029;-72
2022/02/03 06:32:25;;;;;;;8.65;3.72;;;;;;;7.57;97.44;101614.88;5074848;28;20028;-73
2022/02/03 06:34:51;;;;;;;10.57;3.63;;;;;;;7.55;96.80;101607.88;5091071;28;20032;-73
2022/02/03 06:37:19;;;;;;;13.07;4.38;;;;;;;7.55;96.94;101602.59;5072136;28;20055;-74
2022/02/03 06:39:44;;;;;;;11.02;3.78;;;;;;;7.55;96.68;101585.94;5071666;28;20464;-74
2022/02/03 06:42:10;;;;;;;11.07;3.78;;;;;;;7.51;96.65;101586.91;5072110;28;20059;-74
2022/02/03 06:44:43;;;;;;;18.75;4.93;;;;;;;7.47;97.05;101578.19;5072483;28;20108;-75
2022/02/03 06:52:22;;;;;;;13.70;5.57;;;;;;;7.49;96.86;101573.75;5074499;28;20571;-74
2022/02/03 06:57:19;;;;;;;11.05;4.43;;;;;;;7.49;96.76;101583.41;5075746;28;20591;-75
2022/02/03 06:59:53;;;;;;;12.57;4.50;;;;;;;7.50;96.29;101593.91;5075677;28;20025;-74
2022/02/03 07:02:21;;;;;;;14.52;4.22;;;;;;;7.48;96.37;101598.38;5056024;28;20036;-74
2022/02/03 07:04:46;;;;;;;14.10;4.13;;;;;;;7.48;96.82;101592.22;5055747;28;20078;-71
2022/02/03 07:07:16;;;;;;;11.52;4.30;;;;;;;7.49;96.48;101586.94;5058781;28;20033;-74
2022/02/03 07:09:44;;;;;;;12.30;4.40;;;;;;;7.48;96.41;101593.09;5075445;28;20162;-74
2022/02/03 07:12:09;;;;;;;21.08;5.63;;;;;;;7.44;96.59;101586.13;5074717;28;20032;-74
2022/02/03 07:14:36;;;;;;;12.75;4.53;;;;;;;7.47;96.73;101590.50;5074806;28;20047;-73
2022/02/03 07:17:03;;;;;;;12.32;5.38;;;;;;;7.45;96.57;101579.09;5075153;28;20032;-75
2022/02/03 07:19:28;;;;;;;14.25;5.90;;;;;;;7.42;96.88;101587.06;5074523;28;20364;-70
2022/02/03 07:21:54;;;;;;;20.52;6.30;;;;;;;7.45;96.58;101584.38;5074953;28;20445;-71
2022/02/03 07:24:20;;;;;;;12.75;5.32;;;;;;;7.44;96.52;101578.22;5057324;28;20085;-70
2022/02/03 07:26:45;;;;;;;13.98;5.38;;;;;;;7.37;97.22;101581.91;5075258;28;20376;-73
2022/02/03 07:29:11;;;;;;;19.52;5.95;;;;;;;7.40;97.43;101580.97;5075415;28;20067;-74
2022/02/03 07:31:36;;;;;;;13.82;6.00;;;;;;;7.37;97.71;101568.72;5074556;28;20020;-71
2022/02/03 07:34:04;;;;;;;14.40;6.28;;;;;;;7.38;97.46;101567.81;5075142;28;20472;-71
2022/02/03 07:36:30;;;;;;;15.80;7.55;;;;;;;7.37;97.67;101553.75;5075128;28;20033;-73
2022/02/03 07:38:57;;;;;;;18.13;7.00;;;;;;;7.37;97.68;101561.66;5074842;28;20034;-68
2022/02/03 07:41:22;;;;;;;19.30;8.02;;;;;;;7.37;97.98;101574.00;5074015;28;20056;-75
2022/02/03 07:43:47;;;;;;;21.55;7.90;;;;;;;7.34;98.23;101588.09;5074541;28;20032;-74
2022/02/03 07:46:13;;;;;;;17.52;8.10;;;;;;;7.33;98.52;101574.97;5075008;28;20449;-75
2022/02/03 07:48:39;;;;;;;34.30;13.00;;;;;;;7.33;98.53;101564.41;5075217;28;20184;-74
2022/02/03 07:51:04;;;;;;;14.95;7.80;;;;;;;7.33;98.63;101585.50;5074690;28;20017;-71
2022/02/03 07:53:30;;;;;;;14.07;7.95;;;;;;;7.33;98.65;101578.44;5074208;28;20396;-74
2022/02/03 07:55:55;;;;;;;13.68;7.45;;;;;;;7.30;99.46;101567.97;5075003;28;20474;-71
2022/02/03 07:58:21;;;;;;;17.13;7.45;;;;;;;7.25;100.00;101567.19;5074291;28;20028;-73
2022/02/03 08:00:46;;;;;;;16.73;8.35;;;;;;;7.19;100.00;101564.69;5074554;28;20051;-74
2022/02/03 08:03:14;;;;;;;20.25;8.68;;;;;;;7.19;100.00;101562.91;5073283;28;20396;-75
2022/02/03 08:05:43;;;;;;;15.32;7.18;;;;;;;7.14;100.00;101570.03;5074662;28;20028;-74
2022/02/03 08:08:32;;;;;;;14.95;7.70;;;;;;;7.16;100.00;101572.63;5074900;28;20082;-72
2022/02/03 08:11:01;;;;;;;20.70;8.30;;;;;;;7.09;100.00;101574.50;5074518;28;20534;-71
2022/02/03 08:13:34;;;;;;;16.95;8.20;;;;;;;7.07;100.00;101575.44;5074141;28;20025;-73
2022/02/03 08:16:08;;;;;;;15.15;8.30;;;;;;;7.01;100.00;101569.38;5074641;28;20427;-70
2022/02/03 08:18:34;;;;;;;18.45;8.85;;;;;;;6.97;100.00;101557.19;5071501;28;20017;-71
2022/02/03 08:21:04;;;;;;;19.30;9.98;;;;;;;6.87;100.00;101568.78;5065157;28;20108;-66
2022/02/03 08:26:25;;;;;;;20.35;10.35;;;;;;;6.78;100.00;101554.00;5082444;28;20379;-67
2022/02/03 08:31:23;;;;;;;18.05;11.43;;;;;;;6.70;100.00;101535.72;5074466;28;20480;-73
2022/02/03 08:33:51;;;;;;;22.25;11.65;;;;;;;6.68;100.00;101529.59;5073955;28;20518;-66
2022/02/03 08:36:18;;;;;;;19.52;11.35;;;;;;;6.68;100.00;101540.13;5073840;28;20111;-71
2022/02/03 08:38:50;;;;;;;23.15;11.07;;;;;;;6.69;100.00;101546.28;5074396;28;20041;-67
2022/02/03 08:41:16;;;;;;;20.40;11.27;;;;;;;6.66;100.00;101536.66;5073902;28;20045;-70
2022/02/03 08:43:42;;;;;;;19.40;10.88;;;;;;;6.64;100.00;101543.72;5073375;28;20552;-68
2022/02/03 08:46:12;;;;;;;21.08;11.30;;;;;;;6.62;100.00;101542.00;5073887;28;20078;-67
2022/02/03 08:48:38;;;;;;;21.58;11.45;;;;;;;6.64;100.00;101532.31;5074238;28;20024;-72
2022/02/03 08:51:06;;;;;;;23.15;12.70;;;;;;;6.61;100.00;101529.72;5074195;28;20496;-73
2022/02/03 08:53:39;;;;;;;28.17;13.73;;;;;;;6.63;100.00;101520.91;5073907;28;20033;-73
2022/02/03 08:56:34;;;;;;;25.67;13.07;;;;;;;6.66;100.00;101536.66;5070494;28;20020;-67
2022/02/03 08:59:27;;;;;;;24.67;13.75;;;;;;;6.67;100.00;101537.53;5051621;28;20032;-69
2022/02/03 09:50:53;;;;;;;18.30;9.70;;;;;;;6.49;100.00;101520.28;5037205;28;20080;-69
2022/02/03 09:53:39;;;;;;;17.83;9.35;;;;;;;6.48;100.00;101518.53;5029776;28;20104;-70
2022/02/03 09:59:05;;;;;;;19.00;11.07;;;;;;;6.46;100.00;101515.06;5004918;28;20037;-73
2022/02/03 10:01:36;;;;;;;21.05;10.63;;;;;;;6.58;100.00;101511.38;5007627;28;20284;-74
2022/02/03 10:04:10;;;;;;;20.30;10.90;;;;;;;6.64;100.00;101506.88;5007892;28;20038;-68
2022/02/03 10:06:42;;;;;;;20.42;10.63;;;;;;;6.62;100.00;101505.16;4990585;28;20445;-69
2022/02/03 10:09:08;;;;;;;18.13;9.77;;;;;;;6.70;100.00;101496.22;5007192;28;20097;-69
2022/02/03 10:11:33;;;;;;;16.58;9.73;;;;;;;6.73;100.00;101517.22;5008667;28;20427;-68
2022/02/03 10:14:02;;;;;;;22.33;9.65;;;;;;;6.76;100.00;101518.06;5019741;28;20037;-67
2022/02/03 10:16:33;;;;;;;17.85;10.02;;;;;;;6.79;100.00;101526.78;5011675;28;20078;-71
2022/02/03 10:19:14;;;;;;;15.50;9.13;;;;;;;6.80;100.00;101514.47;5007762;28;20536;-75
2022/02/03 10:21:42;;;;;;;16.48;8.68;;;;;;;6.78;100.00;101500.47;5008114;28;20121;-69
2022/02/03 10:24:10;;;;;;;17.10;8.38;;;;;;;6.80;100.00;101520.59;5006531;28;20030;-72
2022/02/03 10:26:44;;;;;;;15.93;9.63;;;;;;;6.76;100.00;101504.91;5005752;28;20033;-72
2022/02/03 10:29:20;;;;;;;19.45;9.27;;;;;;;6.85;100.00;101487.19;5026446;28;20030;-73
2022/02/03 10:31:46;;;;;;;18.25;9.80;;;;;;;6.88;100.00;101499.44;5010640;28;20077;-72
2022/02/03 10:34:16;;;;;;;15.90;9.23;;;;;;;6.82;100.00;101489.88;5007407;28;20030;-73
2022/02/03 10:37:02;;;;;;;17.30;9.43;;;;;;;6.81;100.00;101497.78;5038214;28;20116;-68
2022/02/03 11:04:04;;;;;;;21.30;9.75;;;;;;;6.88;100.00;101479.22;5012565;28;20440;-69
2022/02/03 11:06:38;;;;;;;17.35;9.65;;;;;;;7.01;100.00;101457.94;5023169;28;20111;-68
2022/02/03 11:11:36;;;;;;;20.58;10.05;;;;;;;7.09;100.00;101441.97;5012925;28;20129;-70
2022/02/03 11:14:03;;;;;;;20.60;10.00;;;;;;;7.14;100.00;101456.75;5012393;28;20037;-67
2022/02/03 11:16:30;;;;;;;18.13;9.57;;;;;;;7.17;100.00;101451.44;5013120;28;20030;-66
2022/02/03 11:19:05;;;;;;;19.67;9.38;;;;;;;7.15;100.00;101424.25;5012188;28;20030;-66
2022/02/03 11:21:32;;;;;;;16.50;8.35;;;;;;;7.11;100.00;101445.41;5016552;28;20156;-65
2022/02/03 11:24:04;;;;;;;21.58;9.35;;;;;;;7.10;100.00;101435.78;5023588;28;20033;-65
2022/02/03 11:29:35;;;;;;;17.65;9.32;;;;;;;7.17;100.00;101438.28;5023870;28;20060;-65
2022/02/03 11:32:15;;;;;;;18.52;8.48;;;;;;;7.19;100.00;101433.81;5029457;28;20029;-66
2022/02/03 12:04:32;;;;;;;24.48;10.40;;;;;;;7.15;100.00;101394.44;5026452;28;20041;-67
2022/02/03 12:07:21;;;;;;;23.63;11.25;;;;;;;7.12;100.00;101400.59;5035718;28;20040;-67
2022/02/03 12:20:23;;;;;;;16.77;8.90;;;;;;;7.03;100.00;101395.53;5024448;28;20032;-67
2022/02/03 12:23:22;;;;;;;14.65;8.88;;;;;;;7.00;100.00;101388.56;5028535;28;20064;-67
2022/02/03 12:25:58;;;;;;;18.08;8.93;;;;;;;6.98;100.00;101374.59;5031450;28;20056;-69
2022/02/03 12:28:34;;;;;;;15.38;8.23;;;;;;;6.95;100.00;101381.69;5026989;28;20026;-72
2022/02/03 12:39:05;;;;;;;14.80;8.35;;;;;;;7.09;100.00;101363.81;5028190;28;20048;-69
2022/02/03 12:42:02;;;;;;;16.15;8.45;;;;;;;7.17;100.00;101366.28;5023580;28;20017;-73
2022/02/03 12:44:30;;;;;;;15.38;8.05;;;;;;;7.30;100.00;101357.22;5032934;28;20029;-72
2022/02/03 12:47:02;;;;;;;15.68;8.55;;;;;;;7.33;100.00;101367.66;5031745;28;20029;-66
2022/02/03 12:49:29;;;;;;;;;;;;;;;7.37;100.00;101368.47;5032719;28;20025;-68
2022/02/03 12:51:55;;;;;;;18.80;9.15;;;;;;;7.41;100.00;101361.38;5032332;28;20381;-67
2022/02/03 12:54:20;;;;;;;23.40;10.32;;;;;;;7.38;100.00;101355.25;5039578;28;20111;-67
2022/02/03 12:56:46;;;;;;;15.43;8.20;;;;;;;7.41;100.00;101356.09;5036120;28;20061;-66
2022/02/03 12:59:15;;;;;;;20.20;9.15;;;;;;;7.34;100.00;101355.34;5026447;28;20033;-70
2022/02/03 13:01:42;;;;;;;16.73;7.95;;;;;;;7.34;100.00;101352.72;5027875;28;20506;-72
2022/02/03 13:04:12;;;;;;;16.25;8.00;;;;;;;7.35;100.00;101331.63;5031062;28;20037;-71
2022/02/03 13:06:43;;;;;;;17.13;9.15;;;;;;;7.31;100.00;101348.38;5027022;28;20394;-69
2022/02/03 13:09:10;;;;;;;12.77;7.75;;;;;;;7.34;100.00;101345.69;5025745;28;20021;-66
2022/02/03 13:16:33;;;;;;;;;;;;;;;7.17;100.00;101329.41;5026739;28;20048;-70
2022/02/03 13:27:01;;;;;;;15.68;8.65;;;;;;;6.94;100.00;101319.38;5026500;28;20111;-67
2022/02/03 13:29:40;;;;;;;18.52;9.38;;;;;;;6.89;100.00;101323.00;5029464;28;20508;-68
2022/02/03 13:32:20;;;;;;;17.88;9.38;;;;;;;6.89;100.00;101309.84;5022556;28;20113;-69
2022/02/03 13:35:44;;;;;;;16.08;8.40;;;;;;;6.87;100.00;101329.19;5010421;28;20107;-67
2022/02/03 13:37:43;;;;;;;17.77;9.50;;;;;;;6.88;100.00;101325.66;5020817;28;20049;-64
2022/02/03 13:40:16;;;;;;;17.63;9.55;;;;;;;6.86;100.00;101320.41;5025021;28;20179;-70
2022/02/03 13:42:48;;;;;;;19.65;9.10;;;;;;;6.84;100.00;101310.81;5027348;28;20040;-67
2022/02/03 13:45:15;;;;;;;21.75;9.23;;;;;;;6.83;100.00;101309.06;5027533;28;20075;-67
2022/02/03 13:47:41;;;;;;;16.95;8.93;;;;;;;6.80;100.00;101311.78;5025904;28;20034;-65
2022/02/03 13:50:09;;;;;;;16.70;9.45;;;;;;;6.79;100.00;101310.06;5017086;28;20048;-67
2022/02/03 13:52:42;;;;;;;18.83;9.20;;;;;;;6.81;100.00;101309.13;5021293;28;21317;-64
2022/02/03 14:15:08;;;;;;;18.33;8.23;;;;;;;6.88;100.00;101287.03;5034045;28;20076;-68
2022/02/03 14:28:00;;;;;;;20.90;8.73;;;;;;;7.14;100.00;101264.50;5022085;28;20056;-71
2022/02/03 14:30:27;;;;;;;16.83;8.85;;;;;;;7.20;100.00;101269.63;5035139;28;20018;-70
2022/02/03 14:32:57;;;;;;;15.48;8.43;;;;;;;7.26;100.00;101279.13;5036548;28;20413;-69
2022/02/03 14:35:22;;;;;;;18.05;8.68;;;;;;;7.31;100.00;101277.25;5035304;28;20038;-70
2022/02/03 14:37:51;;;;;;;17.08;8.27;;;;;;;7.32;100.00;101268.44;5034882;28;20040;-69
2022/02/03 14:42:54;;;;;;;13.50;7.75;;;;;;;7.30;100.00;101267.66;5025939;28;20468;-67
2022/02/03 14:45:20;;;;;;;13.10;8.15;;;;;;;7.31;100.00;101271.97;5028896;28;20049;-74
2022/02/03 14:47:45;;;;;;;16.13;7.90;;;;;;;7.35;100.00;101262.25;5022837;28;20057;-72
2022/02/03 14:50:12;;;;;;;15.35;8.30;;;;;;;7.33;100.00;101254.38;5030444;28;20408;-69
2022/02/03 14:58:17;;;;;;;17.55;8.13;;;;;;;7.37;100.00;101252.53;5030340;28;20052;-72
2022/02/03 15:00:45;;;;;;;14.57;7.68;;;;;;;7.43;100.00;101251.50;5030608;28;20025;-68
2022/02/03 15:03:12;;;;;;;16.25;8.93;;;;;;;7.44;100.00;101248.84;5036339;28;20049;-69
2022/02/03 15:05:39;;;;;;;17.63;8.50;;;;;;;7.43;100.00;101236.59;5039154;28;20026;-67
2022/02/03 15:08:14;;;;;;;18.23;8.30;;;;;;;7.39;100.00;101248.09;5033618;28;20424;-68
2022/02/03 15:10:50;;;;;;;19.35;8.30;;;;;;;7.42;100.00;101239.25;5027825;28;21177;-68
2022/02/03 15:15:59;;;;;;;14.30;7.88;;;;;;;7.37;100.00;101239.38;5029604;28;20088;-69
2022/02/03 15:18:25;;;;;;;16.77;8.93;;;;;;;7.35;100.00;101241.16;5024792;28;20028;-69
2022/02/03 15:20:50;;;;;;;13.27;8.05;;;;;;;7.36;100.00;101238.50;5022336;28;20029;-68
2022/02/03 15:23:15;;;;;;;13.13;8.05;;;;;;;7.34;100.00;101242.06;5028679;28;20026;-69
2022/02/03 15:25:41;;;;;;;19.25;8.02;;;;;;;7.34;100.00;101244.69;5031291;28;20021;-71
2022/02/03 15:28:07;;;;;;;15.60;7.47;;;;;;;7.35;100.00;101252.59;5033496;28;20386;-67
2022/02/03 15:30:32;;;;;;;12.88;7.35;;;;;;;7.31;100.00;101234.25;5032690;28;20464;-68
2022/02/03 15:32:58;;;;;;;19.13;7.95;;;;;;;7.28;100.00;101229.91;5034561;28;20021;-71
2022/02/03 15:35:31;;;;;;;16.98;8.32;;;;;;;7.33;100.00;101238.56;5027568;28;20045;-68
2022/02/03 15:37:58;;;;;;;13.82;6.88;;;;;;;7.32;100.00;101236.84;5031321;28;20486;-70
2022/02/03 15:40:26;;;;;;;18.63;7.97;;;;;;;7.28;100.00;101235.19;5032970;28;20477;-67
2022/02/03 15:45:36;;;;;;;14.30;7.70;;;;;;;7.32;100.00;101241.25;5022661;28;20040;-69
2022/02/03 15:48:11;;;;;;;13.20;7.00;;;;;;;7.28;100.00;101240.47;5031187;28;20116;-68
2022/02/03 16:04:28;;;;;;;14.82;7.15;;;;;;;7.34;100.00;101232.41;5031640;28;20516;-68
2022/02/03 16:17:31;;;;;;;14.52;6.78;;;;;;;7.30;100.00;101237.78;5031537;28;20033;-67
2022/02/03 16:52:04;;;;;;;13.10;6.82;;;;;;;7.21;100.00;101233.59;5028417;28;20040;-70
2022/02/03 16:54:30;;;;;;;12.35;6.60;;;;;;;7.22;100.00;101232.72;5030040;28;20079;-75
2022/02/03 16:57:00;;;;;;;13.20;6.95;;;;;;;7.18;100.00;101220.53;5031460;28;20049;-69
2022/02/03 16:59:28;;;;;;;16.45;7.22;;;;;;;7.20;100.00;101216.94;5033064;28;20037;-65
2022/02/03 17:01:54;;;;;;;11.80;6.80;;;;;;;7.21;100.00;101212.53;5028822;28;20135;-66
2022/02/03 17:04:19;;;;;;;23.00;6.78;;;;;;;7.18;100.00;101231.06;5024554;28;20120;-65
2022/02/03 17:06:45;;;;;;;12.55;6.30;;;;;;;7.20;100.00;101226.63;5032952;28;20480;-65
2022/02/03 17:09:11;;;;;;;15.63;7.20;;;;;;;7.19;100.00;101224.88;5032662;28;20036;-65
2022/02/03 17:11:36;;;;;;;15.32;7.47;;;;;;;7.16;100.00;101217.94;5033874;28;20040;-66
2022/02/03 17:14:01;;;;;;;13.23;6.63;;;;;;;7.16;100.00;101230.22;5042191;28;20037;-66
2022/02/03 17:16:27;;;;;;;17.70;7.15;;;;;;;7.14;100.00;101222.34;5037903;28;20057;-67
2022/02/03 17:18:53;;;;;;;12.88;6.22;;;;;;;7.16;100.00;101225.84;5040392;28;20025;-66
2022/02/03 17:21:20;;;;;;;13.88;7.22;;;;;;;7.14;100.00;101221.50;5052808;28;20035;-65
2022/02/03 17:23:46;;;;;;;16.65;6.93;;;;;;;7.10;100.00;101215.44;5052658;28;20029;-67
2022/02/03 17:29:05;;;;;;;16.35;7.65;;;;;;;7.06;100.00;101213.78;5032255;28;20034;-70
2022/02/03 17:31:32;;;;;;;19.67;7.72;;;;;;;7.05;100.00;101223.44;5029707;28;20088;-66
2022/02/03 18:17:44;;;;;;;16.98;7.32;;;;;;;6.91;100.00;101230.81;5012649;28;20092;-66
2022/02/03 18:25:57;;;;;;;11.60;5.78;;;;;;;6.87;100.00;101239.69;5032502;28;20064;-68
2022/02/03 20:06:42;;;;;;;16.60;7.13;;;;;;;6.34;100.00;101225.06;5017694;28;20041;-67
2022/02/03 20:11:46;;;;;;;16.58;5.60;;;;;;;6.48;100.00;101232.63;5026467;28;20508;-68
2022/02/03 20:14:14;;;;;;;11.93;5.05;;;;;;;6.55;100.00;101210.53;5019878;28;20018;-72
2022/02/03 20:16:41;;;;;;;17.65;5.88;;;;;;;6.61;100.00;101209.56;5014534;28;20075;-71
2022/02/03 20:19:06;;;;;;;15.52;5.30;;;;;;;6.67;100.00;101209.41;5015241;28;20037;-68
2022/02/03 20:21:34;;;;;;;9.98;4.50;;;;;;;6.76;100.00;101205.69;5014924;28;20034;-71
2022/02/03 20:24:00;;;;;;;11.32;4.68;;;;;;;6.82;100.00;101202.06;5031105;28;20028;-66
2022/02/03 20:26:25;;;;;;;9.75;4.45;;;;;;;6.86;100.00;101203.72;5024143;28;20033;-67
2022/02/03 20:28:50;;;;;;;12.35;4.22;;;;;;;6.87;100.00;101201.06;5024984;28;20030;-72
2022/02/03 20:31:16;;;;;;;13.25;3.90;;;;;;;6.90;100.00;101205.38;5026817;28;20029;-67
2022/02/03 20:33:41;;;;;;;9.15;4.00;;;;;;;6.93;100.00;101212.34;5017511;28;20073;-67
2022/02/03 20:36:08;;;;;;;11.63;4.28;;;;;;;6.91;100.00;101204.47;5020058;28;20054;-65
2022/02/03 20:38:33;;;;;;;9.20;3.65;;;;;;;6.94;100.00;101195.66;5012398;28;20022;-70
2022/02/03 20:40:59;;;;;;;11.48;3.95;;;;;;;6.96;100.00;101209.66;5013183;28;20101;-69
2022/02/03 20:43:24;;;;;;;11.10;4.07;;;;;;;6.96;100.00;101209.66;5015988;28;20080;-67
2022/02/03 20:45:51;;;;;;;12.55;4.20;;;;;;;6.95;100.00;101208.75;5018769;28;20029;-69
2022/02/03 20:48:17;;;;;;;12.35;3.95;;;;;;;6.94;100.00;101193.00;5015572;28;20095;-70
2022/02/03 20:50:46;;;;;;;12.30;4.20;;;;;;;6.97;100.00;101185.03;5026325;28;20498;-69
2022/02/03 20:53:11;;;;;;;13.77;4.38;;;;;;;6.98;100.00;101184.13;5011964;28;20025;-73
2022/02/03 20:55:36;;;;;;;10.10;4.82;;;;;;;6.99;100.00;101184.09;5014156;28;20036;-68
2022/02/03 20:58:02;;;;;;;11.60;5.00;;;;;;;7.01;100.00;101197.25;5014405;28;20021;-69
2022/02/03 21:00:38;;;;;;;15.95;5.68;;;;;;;7.02;100.00;101184.03;5013384;28;20044;-71
2022/02/03 21:03:12;;;;;;;11.68;5.40;;;;;;;7.02;100.00;101185.78;5022750;28;20492;-68
2022/02/03 21:05:40;;;;;;;15.07;5.70;;;;;;;7.01;100.00;101179.66;5022804;28;20025;-74
2022/02/03 21:08:05;;;;;;;13.65;5.93;;;;;;;7.00;100.00;101180.56;5032601;28;20115;-70
2022/02/03 21:10:31;;;;;;;13.98;5.43;;;;;;;7.02;100.00;101183.16;5034944;28;20126;-66
2022/02/03 21:12:58;;;;;;;15.48;6.25;;;;;;;7.01;100.00;101178.81;5031407;28;20029;-66
2022/02/03 21:15:27;;;;;;;15.52;5.75;;;;;;;7.02;100.00;101189.28;5020359;28;20033;-69
2022/02/03 21:17:54;;;;;;;11.90;5.30;;;;;;;7.01;100.00;101173.53;5012676;28;20022;-67
2022/02/03 21:20:22;;;;;;;14.20;5.60;;;;;;;7.02;100.00;101170.88;5030588;28;20080;-69
2022/02/03 21:22:51;;;;;;;14.00;5.75;;;;;;;7.02;100.00;101180.50;5032120;28;20034;-72
2022/02/03 21:25:38;;;;;;;15.00;5.90;;;;;;;7.02;100.00;101173.50;5032845;28;20027;-72
2022/02/03 21:28:11;;;;;;;12.27;5.20;;;;;;;7.05;100.00;101172.56;5032867;28;20098;-72
2022/02/03 21:30:37;;;;;;;11.32;4.85;;;;;;;7.03;100.00;101169.09;5037441;28;20147;-71
2022/02/03 21:33:02;;;;;;;9.40;5.05;;;;;;;7.07;100.00;101169.88;5035338;28;20465;-68
2022/02/03 21:35:29;;;;;;;13.20;5.28;;;;;;;7.08;100.00;101180.38;5025265;28;20033;-67
2022/02/03 21:37:54;;;;;;;12.60;5.00;;;;;;;7.08;100.00;101183.00;5038294;28;20084;-73
2022/02/03 21:40:21;;;;;;;10.20;4.53;;;;;;;7.09;100.00;101179.47;5033618;28;20041;-68
2022/02/03 21:42:47;;;;;;;10.88;4.60;;;;;;;7.09;100.00;101183.88;5032534;28;20025;-70
2022/02/03 21:45:14;;;;;;;11.30;4.60;;;;;;;7.09;100.00;101174.19;5032391;28;20025;-68
2022/02/03 21:47:39;;;;;;;8.95;3.95;;;;;;;7.13;100.00;101172.38;5032377;28;20037;-69
2022/02/03 21:50:06;;;;;;;8.38;4.50;;;;;;;7.15;99.97;101171.41;5032724;28;20071;-68
2022/02/03 21:52:37;;;;;;;10.93;4.50;;;;;;;7.15;99.31;101170.56;5032865;28;20496;-69
2022/02/03 21:55:05;;;;;;;9.85;4.55;;;;;;;7.18;99.42;101181.88;5032873;28;20120;-68
2022/02/03 21:57:31;;;;;;;12.80;4.78;;;;;;;7.20;99.09;101176.59;5032500;28;20090;-71
2022/02/03 21:59:57;;;;;;;9.65;4.30;;;;;;;7.19;99.09;101167.78;5032069;28;20416;-66
2022/02/03 22:02:23;;;;;;;11.60;4.72;;;;;;;7.20;99.01;101166.03;5033837;28;20022;-73
2022/02/03 22:04:48;;;;;;;9.98;4.72;;;;;;;7.21;98.97;101158.09;5032553;28;20029;-71
2022/02/03 22:07:13;;;;;;;12.18;4.85;;;;;;;7.22;99.04;101167.75;5032274;28;20433;-70
2022/02/03 22:09:40;;;;;;;11.13;5.00;;;;;;;7.21;99.22;101160.72;5031408;28;20105;-70
2022/02/03 22:12:06;;;;;;;9.60;5.07;;;;;;;7.22;98.86;101166.84;5033449;28;20021;-72
2022/02/03 22:14:33;;;;;;;14.10;5.50;;;;;;;7.22;99.19;101165.09;5032353;28;20389;-70
2022/02/03 22:17:00;;;;;;;13.95;5.85;;;;;;;7.21;99.09;101160.72;5032192;28;20030;-71
2022/02/03 22:19:27;;;;;;;14.57;6.00;;;;;;;7.23;99.23;101163.31;5031587;28;20022;-71
2022/02/03 22:22:22;;;;;;;13.52;6.68;;;;;;;7.23;99.33;101152.78;5031374;28;20040;-67
2022/02/03 22:38:41;;;;;;;14.25;6.78;;;;;;;7.29;98.98;101162.28;5032059;28;20047;-68
2022/02/03 22:46:15;;;;;;;16.90;7.00;;;;;;;7.29;99.21;101170.19;5037493;28;19971;-67
2022/02/03 22:48:40;;;;;;;14.63;6.43;;;;;;;7.26;99.59;101176.41;5035972;28;20025;-67